Time;durP1;ratioP1;P1;durP2;ratioP2;P2;SDS_P1;SDS_P2;PMS_P1;PMS_P2;Temp;Humidity;BMP_temperature;BMP_pressure;BME280_temperature;BME280_humidity;BME280_pressure;Samples;Min_cycle;Max_cycle;Signal;HPM_P1;HPM_P2
2022/09/24 00:01:20;;;;;;;8.30;7.13;;;;;;;11.95;nan;97838.94;5053175;28;20237;-70
2022/09/24 00:03:54;;;;;;;10.40;7.20;;;;;;;11.98;nan;97838.50;5053226;28;20198;-70
2022/09/24 00:06:23;;;;;;;11.27;7.87;;;;;;;12.00;nan;97829.22;5053355;28;20221;-70
2022/09/24 00:08:53;;;;;;;9.23;8.30;;;;;;;12.03;nan;97825.28;5053273;28;20202;-70
2022/09/24 00:11:20;;;;;;;10.60;7.87;;;;;;;12.07;nan;97823.78;5053131;28;20298;-70
2022/09/24 00:13:47;;;;;;;13.27;8.70;;;;;;;12.08;nan;97828.84;5052921;28;20742;-70
2022/09/24 00:16:19;;;;;;;11.57;9.10;;;;;;;12.09;nan;97827.81;5053134;28;20201;-71
2022/09/24 00:18:45;;;;;;;9.17;8.20;;;;;;;12.14;nan;97825.28;5053172;28;20194;-70
2022/09/24 00:21:17;;;;;;;11.43;8.73;;;;;;;12.15;nan;97826.88;5052994;28;20241;-70
2022/09/24 00:23:44;;;;;;;11.13;8.70;;;;;;;12.19;nan;97821.88;5052896;28;20202;-70
2022/09/24 00:28:59;;;;;;;9.93;8.77;;;;;;;12.18;nan;97809.63;5053092;28;20192;-70
2022/09/24 00:31:26;;;;;;;9.80;8.77;;;;;;;12.17;nan;97798.13;5052798;28;20231;-70
2022/09/24 00:33:53;;;;;;;9.60;8.70;;;;;;;12.19;nan;97803.22;5053579;28;20218;-70
2022/09/24 00:36:22;;;;;;;14.00;8.80;;;;;;;12.18;nan;97809.63;5053301;28;20215;-70
2022/09/24 00:38:53;;;;;;;12.97;9.17;;;;;;;12.15;nan;97816.22;5052690;28;20669;-70
2022/09/24 00:41:22;;;;;;;10.40;8.63;;;;;;;12.15;nan;97821.56;5053518;28;20233;-70
2022/09/24 00:43:50;;;;;;;10.43;8.87;;;;;;;12.12;nan;97816.69;5054146;28;20202;-70
2022/09/24 00:46:39;;;;;;;11.80;8.67;;;;;;;12.05;nan;97810.69;5056613;28;20217;-70
2022/09/24 00:49:17;;;;;;;9.03;8.13;;;;;;;11.99;nan;97810.81;5056281;28;20192;-70
2022/09/24 00:51:47;;;;;;;9.47;8.23;;;;;;;11.89;nan;97807.94;5054899;28;20589;-70
2022/09/24 00:54:19;;;;;;;9.70;8.07;;;;;;;11.88;nan;97798.28;5056204;28;20669;-70
2022/09/24 00:56:48;;;;;;;8.77;7.67;;;;;;;11.89;nan;97789.28;5056762;28;20197;-70
2022/09/24 00:59:18;;;;;;;11.03;8.40;;;;;;;11.87;nan;97784.19;5056352;28;20205;-70
2022/09/24 01:01:46;;;;;;;10.33;9.23;;;;;;;11.85;nan;97777.47;5056803;28;20532;-70
2022/09/24 01:04:14;;;;;;;10.40;9.27;;;;;;;11.83;nan;97775.03;5056204;28;20320;-70
2022/09/24 01:06:41;;;;;;;10.70;9.53;;;;;;;11.83;nan;97777.69;5055042;28;20201;-70
2022/09/24 01:09:08;;;;;;;10.23;8.83;;;;;;;11.83;nan;97776.88;5056220;28;20203;-70
2022/09/24 01:11:46;;;;;;;11.77;9.33;;;;;;;11.78;nan;97774.09;5056189;28;20205;-70
2022/09/24 01:14:22;;;;;;;11.63;9.73;;;;;;;11.72;nan;97775.88;5056159;28;20200;-70
2022/09/24 01:16:52;;;;;;;11.80;9.67;;;;;;;11.65;nan;97769.84;5056149;28;20186;-70
2022/09/24 01:20:02;;;;;;;12.13;9.43;;;;;;;11.56;nan;97768.53;5055871;28;20186;-70
2022/09/24 01:22:45;;;;;;;11.50;9.80;;;;;;;11.60;nan;97764.41;5056498;28;20285;-70
2022/09/24 01:25:41;;;;;;;10.07;8.97;;;;;;;11.56;nan;97765.03;5055964;28;20236;-70
2022/09/24 01:28:29;;;;;;;12.60;9.37;;;;;;;11.54;nan;97756.50;5055673;28;20268;-70
2022/09/24 01:31:03;;;;;;;12.37;10.07;;;;;;;11.54;nan;97757.31;5055665;28;20229;-70
2022/09/24 01:33:33;;;;;;;12.67;8.90;;;;;;;11.49;nan;97751.84;5055811;28;20263;-70
2022/09/24 01:36:07;;;;;;;11.77;8.97;;;;;;;11.50;nan;97744.69;5055781;28;20194;-70
2022/09/24 01:38:38;;;;;;;11.67;8.80;;;;;;;11.49;nan;97746.53;5055724;28;20217;-70
2022/09/24 01:41:06;;;;;;;11.10;10.00;;;;;;;11.47;nan;97742.47;5055471;28;20236;-70
2022/09/24 01:43:34;;;;;;;11.53;9.57;;;;;;;11.45;nan;97741.91;5055617;28;20252;-70
2022/09/24 01:46:04;;;;;;;10.73;9.60;;;;;;;11.39;nan;97733.00;5055577;28;20205;-70
2022/09/24 01:48:32;;;;;;;12.10;9.20;;;;;;;11.34;nan;97737.41;5055470;28;20278;-70
2022/09/24 01:51:22;;;;;;;12.67;9.47;;;;;;;11.38;nan;97738.53;5055111;28;20320;-70
2022/09/24 01:54:24;;;;;;;12.93;10.10;;;;;;;11.33;nan;97744.56;5054497;28;20196;-70
2022/09/24 01:57:24;;;;;;;11.07;9.97;;;;;;;11.27;nan;97748.16;5055218;28;20212;-70
2022/09/24 02:00:19;;;;;;;9.67;8.73;;;;;;;11.32;nan;97724.34;5053672;28;20707;-70
2022/09/24 02:02:59;;;;;;;12.43;9.73;;;;;;;11.22;nan;97718.78;5054105;28;20209;-70
2022/09/24 02:05:31;;;;;;;12.33;9.37;;;;;;;11.25;nan;97718.31;5054774;28;20185;-70
2022/09/24 02:08:21;;;;;;;10.87;9.77;;;;;;;11.25;nan;97720.97;5055163;28;20212;-70
2022/09/24 02:11:01;;;;;;;10.90;9.70;;;;;;;11.19;nan;97724.56;5055073;28;20218;-70
2022/09/24 02:13:39;;;;;;;10.83;8.80;;;;;;;11.18;nan;97720.28;5055119;28;20531;-70
2022/09/24 02:16:08;;;;;;;10.67;9.40;;;;;;;11.22;nan;97724.09;5054968;28;20201;-70
2022/09/24 02:18:40;;;;;;;14.73;9.83;;;;;;;11.23;nan;97721.19;5053730;28;20209;-70
2022/09/24 02:21:12;;;;;;;18.23;10.27;;;;;;;11.20;nan;97720.84;5054475;28;20599;-70
2022/09/24 02:23:44;;;;;;;28.97;10.17;;;;;;;11.23;nan;97720.41;5053982;28;20585;-70
2022/09/24 02:26:11;;;;;;;29.03;10.83;;;;;;;11.23;nan;97717.72;5054520;28;20577;-70
2022/09/24 02:28:37;;;;;;;18.67;9.87;;;;;;;11.27;nan;97721.56;5054740;28;20205;-70
2022/09/24 02:31:10;;;;;;;22.53;10.47;;;;;;;11.27;nan;97716.25;5054307;28;20230;-70
2022/09/24 02:36:25;;;;;;;14.53;9.73;;;;;;;11.25;nan;97734.25;5054712;28;20595;-70
2022/09/24 02:38:52;;;;;;;12.70;9.30;;;;;;;11.30;nan;97723.72;5054551;28;20213;-70
2022/09/24 02:41:22;;;;;;;11.03;9.53;;;;;;;11.35;nan;97715.88;5054393;28;20229;-70
2022/09/24 02:43:50;;;;;;;11.77;9.63;;;;;;;11.38;nan;97706.59;5054178;28;20209;-70
2022/09/24 02:46:17;;;;;;;12.33;9.30;;;;;;;11.35;nan;97707.88;5054420;28;20201;-70
2022/09/24 02:48:43;;;;;;;10.67;8.53;;;;;;;11.39;nan;97708.25;5054349;28;20208;-70
2022/09/24 02:51:10;;;;;;;10.30;8.80;;;;;;;11.40;nan;97721.31;5054248;28;20229;-70
2022/09/24 02:53:36;;;;;;;9.67;8.77;;;;;;;11.38;nan;97717.25;5054301;28;20224;-70
2022/09/24 02:56:03;;;;;;;10.00;9.00;;;;;;;11.38;nan;97712.75;5054275;28;20209;-70
2022/09/24 02:58:31;;;;;;;10.00;8.87;;;;;;;11.45;nan;97712.63;5054204;28;20205;-70
2022/09/24 03:00:57;;;;;;;11.30;9.33;;;;;;;11.45;nan;97709.97;5053970;28;20229;-70
2022/09/24 03:03:24;;;;;;;10.50;8.93;;;;;;;11.42;nan;97721.91;5053638;28;20672;-70
2022/09/24 03:05:53;;;;;;;13.20;9.07;;;;;;;11.43;nan;97712.88;5053629;28;20212;-70
2022/09/24 03:08:21;;;;;;;10.13;9.17;;;;;;;11.44;nan;97706.50;5054115;28;20212;-70
2022/09/24 03:10:48;;;;;;;11.53;9.37;;;;;;;11.44;nan;97711.81;5053797;28;20221;-70
2022/09/24 03:13:14;;;;;;;9.87;8.93;;;;;;;11.39;nan;97709.03;5053888;28;20212;-70
2022/09/24 03:15:41;;;;;;;12.13;9.17;;;;;;;11.41;nan;97704.31;5053887;28;20205;-70
2022/09/24 03:18:07;;;;;;;10.93;9.57;;;;;;;11.41;nan;97700.81;5053857;28;20209;-70
2022/09/24 03:20:33;;;;;;;11.60;9.53;;;;;;;11.43;nan;97699.56;5053902;28;20234;-70
2022/09/24 03:23:00;;;;;;;11.17;9.60;;;;;;;11.41;nan;97693.66;5053729;28;20201;-70
2022/09/24 03:25:26;;;;;;;9.80;8.67;;;;;;;11.42;nan;97692.63;5053760;28;20201;-70
2022/09/24 03:27:52;;;;;;;11.23;9.17;;;;;;;11.43;nan;97696.09;5053634;28;20209;-70
2022/09/24 03:33:03;;;;;;;10.43;9.43;;;;;;;11.39;nan;97686.97;5053313;28;20315;-70
2022/09/24 03:35:29;;;;;;;10.67;9.53;;;;;;;11.40;nan;97685.91;5053562;28;20208;-70
2022/09/24 03:37:55;;;;;;;11.13;9.10;;;;;;;11.36;nan;97687.41;5053527;28;20209;-70
2022/09/24 03:40:22;;;;;;;12.10;9.47;;;;;;;11.42;nan;97687.28;5053365;28;20235;-70
2022/09/24 03:42:48;;;;;;;11.37;8.97;;;;;;;11.45;nan;97684.19;5053039;28;20255;-70
2022/09/24 03:45:14;;;;;;;11.27;9.73;;;;;;;11.47;nan;97682.06;5053118;28;20603;-70
2022/09/24 03:47:41;;;;;;;11.17;9.47;;;;;;;11.47;nan;97670.59;5053274;28;20288;-70
2022/09/24 03:50:10;;;;;;;10.40;9.30;;;;;;;11.47;nan;97673.28;5053066;28;20225;-70
2022/09/24 03:52:38;;;;;;;11.30;9.10;;;;;;;11.46;nan;97672.47;5053064;28;20209;-70
2022/09/24 03:55:05;;;;;;;10.67;9.70;;;;;;;11.47;nan;97675.94;5053594;28;20213;-70
2022/09/24 03:57:31;;;;;;;10.60;9.40;;;;;;;11.45;nan;97670.03;5053329;28;20209;-70
2022/09/24 03:59:58;;;;;;;10.17;9.17;;;;;;;11.45;nan;97678.84;5053230;28;20221;-70
2022/09/24 04:02:24;;;;;;;12.77;10.07;;;;;;;11.46;nan;97672.47;5053283;28;20288;-70
2022/09/24 04:04:51;;;;;;;10.27;9.27;;;;;;;11.43;nan;97675.59;5052899;28;20220;-70
2022/09/24 04:07:18;;;;;;;11.00;9.90;;;;;;;11.41;nan;97677.69;5052892;28;20640;-70
2022/09/24 04:09:44;;;;;;;10.10;9.03;;;;;;;11.49;nan;97672.00;5053157;28;20462;-70
2022/09/24 04:12:12;;;;;;;10.80;9.17;;;;;;;11.46;nan;97669.81;5053213;28;20223;-70
2022/09/24 04:14:38;;;;;;;12.03;9.50;;;;;;;11.46;nan;97672.47;5052801;28;20582;-70
2022/09/24 04:17:04;;;;;;;9.70;8.67;;;;;;;11.47;nan;97679.41;5053279;28;20205;-69
2022/09/24 04:19:32;;;;;;;10.93;9.13;;;;;;;11.50;nan;97667.50;5055523;28;20226;-70
2022/09/24 04:21:58;;;;;;;10.20;9.13;;;;;;;11.45;nan;97668.22;5056995;28;20217;-70
2022/09/24 04:24:25;;;;;;;10.17;8.97;;;;;;;11.45;nan;97665.53;5057086;28;20213;-70
2022/09/24 04:26:52;;;;;;;9.53;8.63;;;;;;;11.47;nan;97673.28;5057099;28;20208;-70
2022/09/24 04:29:18;;;;;;;9.53;8.63;;;;;;;11.52;nan;97679.53;5056450;28;20206;-70
2022/09/24 04:31:45;;;;;;;10.53;9.20;;;;;;;11.48;nan;97666.94;5056654;28;20686;-70
2022/09/24 04:34:11;;;;;;;10.03;9.03;;;;;;;11.47;nan;97674.09;5056927;28;20201;-70
2022/09/24 04:36:38;;;;;;;11.13;8.90;;;;;;;11.47;nan;97668.78;5056552;28;20216;-70
2022/09/24 04:39:04;;;;;;;9.77;8.53;;;;;;;11.51;nan;97664.59;5056314;28;20210;-70
2022/09/24 04:41:30;;;;;;;9.37;8.47;;;;;;;11.51;nan;97661.13;5056489;28;20233;-70
2022/09/24 04:43:58;;;;;;;9.47;8.53;;;;;;;11.56;nan;97650.56;5056702;28;20201;-70
2022/09/24 04:46:24;;;;;;;10.17;9.13;;;;;;;11.47;nan;97650.13;5056663;28;20213;-70
2022/09/24 04:48:52;;;;;;;10.80;8.83;;;;;;;11.45;nan;97648.75;5056629;28;20215;-70
2022/09/24 04:51:20;;;;;;;11.97;9.27;;;;;;;11.46;nan;97655.69;5056476;28;20279;-70
2022/09/24 04:53:49;;;;;;;9.90;8.90;;;;;;;11.45;nan;97660.22;5056241;28;20681;-70
2022/09/24 04:56:16;;;;;;;9.90;8.90;;;;;;;11.43;nan;97651.66;5056470;28;20212;-70
2022/09/24 04:58:42;;;;;;;9.83;8.40;;;;;;;11.42;nan;97655.34;5056336;28;20201;-70
2022/09/24 05:01:09;;;;;;;10.17;9.17;;;;;;;11.40;nan;97636.13;5056274;28;20229;-70
2022/09/24 05:03:36;;;;;;;9.83;8.83;;;;;;;11.43;nan;97646.31;5056158;28;20220;-70
2022/09/24 05:06:02;;;;;;;9.97;8.17;;;;;;;11.43;nan;97641.00;5056137;28;20212;-70
2022/09/24 05:08:28;;;;;;;9.80;8.73;;;;;;;11.41;nan;97647.59;5055884;28;20220;-70
2022/09/24 05:10:55;;;;;;;11.50;9.03;;;;;;;11.37;nan;97657.09;5055787;28;20222;-70
2022/09/24 05:13:21;;;;;;;9.87;8.93;;;;;;;11.40;nan;97649.44;5055810;28;20205;-70
2022/09/24 05:15:47;;;;;;;10.23;9.20;;;;;;;11.39;nan;97650.50;5056103;28;20216;-70
2022/09/24 05:18:14;;;;;;;9.90;8.53;;;;;;;11.42;nan;97655.34;5056056;28;20208;-70
2022/09/24 05:20:40;;;;;;;9.57;8.57;;;;;;;11.43;nan;97666.81;5055912;28;20225;-70
2022/09/24 05:23:07;;;;;;;10.10;9.10;;;;;;;11.41;nan;97661.72;5055956;28;20205;-70
2022/09/24 05:27:07;;;;;;;9.77;8.60;;;;;;;11.43;nan;97661.50;5055614;28;20210;-70
2022/09/24 05:28:20;;;;;;;10.63;8.97;;;;;;;11.42;nan;97663.34;5055381;28;20650;-70
2022/09/24 05:30:47;;;;;;;12.20;8.93;;;;;;;11.38;nan;97666.69;5054410;28;20236;-70
2022/09/24 05:33:13;;;;;;;10.80;8.87;;;;;;;11.42;nan;97665.19;5055819;28;20259;-70
2022/09/24 05:35:40;;;;;;;10.00;9.07;;;;;;;11.40;nan;97667.28;5055718;28;20601;-69
2022/09/24 05:38:06;;;;;;;9.37;8.47;;;;;;;11.43;nan;97661.50;5055583;28;20213;-70
2022/09/24 05:40:47;;;;;;;9.30;8.40;;;;;;;11.41;nan;97675.03;5055303;28;20225;-70
2022/09/24 05:43:14;;;;;;;9.07;8.27;;;;;;;11.46;nan;97674.31;5055173;28;20636;-70
2022/09/24 05:45:41;;;;;;;9.97;8.47;;;;;;;11.46;nan;97680.47;5055502;28;20210;-70
2022/09/24 05:48:08;;;;;;;9.27;8.37;;;;;;;11.49;nan;97677.31;5055495;28;20239;-70
2022/09/24 05:50:34;;;;;;;14.10;9.00;;;;;;;11.49;nan;97677.31;5055420;28;20252;-70
2022/09/24 05:53:01;;;;;;;9.10;8.30;;;;;;;11.53;nan;97689.13;5055421;28;20571;-69
2022/09/24 05:55:28;;;;;;;9.43;8.53;;;;;;;11.54;nan;97682.78;5055014;28;20664;-69
2022/09/24 05:57:55;;;;;;;9.93;9.00;;;;;;;11.52;nan;97687.50;5055372;28;20590;-70
2022/09/24 06:00:21;;;;;;;12.47;9.30;;;;;;;11.57;nan;97689.50;5055135;28;20233;-70
2022/09/24 06:02:49;;;;;;;11.53;8.60;;;;;;;11.59;nan;97682.88;5055077;28;20221;-70
2022/09/24 06:05:15;;;;;;;11.00;8.83;;;;;;;11.60;nan;97681.03;5054758;28;20209;-69
2022/09/24 06:07:42;;;;;;;9.70;8.77;;;;;;;11.64;nan;97685.69;5055087;28;20213;-70
2022/09/24 06:10:09;;;;;;;8.83;8.03;;;;;;;11.71;nan;97688.22;5055706;28;20237;-70
2022/09/24 06:12:35;;;;;;;9.53;8.30;;;;;;;11.73;nan;97689.59;5054527;28;20297;-70
2022/09/24 06:15:02;;;;;;;9.03;8.23;;;;;;;11.74;nan;97690.38;5054615;28;20210;-70
2022/09/24 06:17:31;;;;;;;10.07;8.57;;;;;;;11.72;nan;97688.00;5055621;28;20206;-70
2022/09/24 06:19:57;;;;;;;10.47;8.47;;;;;;;11.77;nan;97684.59;5054442;28;20236;-70
2022/09/24 06:22:24;;;;;;;11.47;8.67;;;;;;;11.77;nan;97690.75;5054171;28;20276;-70
2022/09/24 06:24:50;;;;;;;10.97;9.10;;;;;;;11.80;nan;97682.28;5054292;28;20637;-70
2022/09/24 06:27:17;;;;;;;8.50;7.70;;;;;;;11.79;nan;97691.31;5054593;28;20630;-70
2022/09/24 06:29:43;;;;;;;11.10;8.70;;;;;;;11.83;nan;97697.78;5054332;28;20259;-70
2022/09/24 06:32:09;;;;;;;9.37;8.43;;;;;;;11.85;nan;97701.00;5054525;28;20279;-70
2022/09/24 06:34:36;;;;;;;9.10;8.20;;;;;;;11.90;nan;97706.47;5054252;28;20214;-70
2022/09/24 06:37:02;;;;;;;9.37;8.23;;;;;;;11.94;nan;97723.59;5054329;28;20206;-69
2022/09/24 06:39:28;;;;;;;9.90;9.00;;;;;;;11.93;nan;97716.63;5054280;28;20391;-70
2022/09/24 06:41:55;;;;;;;11.93;8.50;;;;;;;12.00;nan;97716.50;5054000;28;20225;-70
2022/09/24 06:44:21;;;;;;;9.37;8.47;;;;;;;11.99;nan;97713.06;5054463;28;20205;-70
2022/09/24 06:46:47;;;;;;;10.13;8.63;;;;;;;12.11;nan;97715.69;5054396;28;20207;-70
2022/09/24 06:49:14;;;;;;;9.33;8.30;;;;;;;12.03;nan;97714.19;5053908;28;20211;-69
2022/09/24 06:51:40;;;;;;;10.50;8.23;;;;;;;12.09;nan;97709.75;5053975;28;20210;-70
2022/09/24 06:54:06;;;;;;;14.77;8.63;;;;;;;12.05;nan;97709.44;5053826;28;20297;-70
2022/09/24 06:56:33;;;;;;;9.13;8.20;;;;;;;12.11;nan;97724.47;5053803;28;20206;-70
2022/09/24 06:58:59;;;;;;;9.53;8.47;;;;;;;12.14;nan;97720.53;5054134;28;20568;-70
2022/09/24 07:01:25;;;;;;;10.53;8.97;;;;;;;12.32;nan;97715.84;5053964;28;20236;-70
2022/09/24 07:03:52;;;;;;;9.50;8.63;;;;;;;12.16;nan;97716.56;5053985;28;20207;-70
2022/09/24 07:06:18;;;;;;;9.47;8.43;;;;;;;12.20;nan;97717.72;5053811;28;20213;-70
2022/09/24 07:08:44;;;;;;;10.20;9.10;;;;;;;12.29;nan;97715.50;5053687;28;20667;-70
2022/09/24 07:11:14;;;;;;;8.97;8.00;;;;;;;12.39;nan;97713.03;5053771;28;20236;-70
2022/09/24 07:13:40;;;;;;;8.90;8.00;;;;;;;12.41;nan;97732.25;5053674;28;20204;-70
2022/09/24 07:16:06;;;;;;;9.10;7.63;;;;;;;12.42;nan;97721.34;5053203;28;20217;-70
2022/09/24 07:18:33;;;;;;;9.10;8.20;;;;;;;12.46;nan;97725.16;5054093;28;20212;-69
2022/09/24 07:20:59;;;;;;;10.13;8.03;;;;;;;12.56;nan;97720.00;5053567;28;20559;-70
2022/09/24 07:23:26;;;;;;;12.73;8.37;;;;;;;12.51;nan;97727.09;5053465;28;20212;-70
2022/09/24 07:25:56;;;;;;;9.37;8.10;;;;;;;12.49;nan;97735.34;5053898;28;20212;-69
2022/09/24 07:28:22;;;;;;;9.37;8.00;;;;;;;12.54;nan;97735.44;5053515;28;20214;-70
2022/09/24 07:30:56;;;;;;;8.80;8.00;;;;;;;12.59;nan;97743.53;5052977;28;20236;-70
2022/09/24 07:33:22;;;;;;;11.63;8.47;;;;;;;12.58;nan;97747.25;5053372;28;20196;-70
2022/09/24 07:35:49;;;;;;;8.83;7.93;;;;;;;12.59;nan;97738.22;5053088;28;20290;-70
2022/09/24 07:38:16;;;;;;;12.67;8.83;;;;;;;12.65;nan;97739.91;5053009;28;20600;-70
2022/09/24 07:40:43;;;;;;;9.47;8.13;;;;;;;12.68;nan;97747.44;5053289;28;20228;-70
2022/09/24 07:43:12;;;;;;;9.37;7.97;;;;;;;12.65;nan;97750.56;5052953;28;20224;-70
2022/09/24 07:45:39;;;;;;;9.03;8.13;;;;;;;12.75;nan;97747.28;5053345;28;20208;-70
2022/09/24 07:48:07;;;;;;;9.40;8.10;;;;;;;12.81;nan;97749.81;5053149;28;20208;-70
2022/09/24 07:50:38;;;;;;;10.73;8.43;;;;;;;12.89;nan;97752.06;5053011;28;20324;-70
2022/09/24 07:53:05;;;;;;;9.80;8.03;;;;;;;12.88;nan;97763.00;5052257;28;20189;-70
2022/09/24 07:55:32;;;;;;;8.90;8.00;;;;;;;12.81;nan;97757.81;5053033;28;20212;-70
2022/09/24 07:57:59;;;;;;;12.03;7.90;;;;;;;12.86;nan;97765.91;5053039;28;20303;-70
2022/09/24 08:00:25;;;;;;;9.23;8.33;;;;;;;12.94;nan;97756.69;5052902;28;20234;-70
2022/09/24 08:02:52;;;;;;;10.60;8.77;;;;;;;12.96;nan;97760.75;5053014;28;20221;-70
2022/09/24 08:05:19;;;;;;;9.13;8.27;;;;;;;12.98;nan;97755.19;5053220;28;20204;-70
2022/09/24 08:07:56;;;;;;;9.00;8.20;;;;;;;13.05;nan;97753.16;5053173;28;20315;-70
2022/09/24 08:10:24;;;;;;;9.50;8.53;;;;;;;13.15;nan;97754.16;5053070;28;20312;-69
2022/09/24 08:12:50;;;;;;;10.13;8.30;;;;;;;13.21;nan;97753.16;5052981;28;20562;-70
2022/09/24 08:15:17;;;;;;;10.60;8.70;;;;;;;13.26;nan;97760.47;5052959;28;20206;-70
2022/09/24 08:17:44;;;;;;;10.83;8.10;;;;;;;13.35;nan;97756.34;5052873;28;20618;-69
2022/09/24 08:20:11;;;;;;;8.20;7.33;;;;;;;13.42;nan;97757.78;5052870;28;20221;-70
2022/09/24 08:22:37;;;;;;;8.77;7.47;;;;;;;13.48;nan;97770.16;5052933;28;20229;-70
2022/09/24 08:25:04;;;;;;;9.40;7.83;;;;;;;13.59;nan;97768.44;5053194;28;20216;-70
2022/09/24 08:27:35;;;;;;;10.67;8.33;;;;;;;13.64;nan;97772.00;5052786;28;20296;-70
2022/09/24 08:30:01;;;;;;;8.40;7.60;;;;;;;13.71;nan;97775.31;5053140;28;20245;-70
2022/09/24 08:32:28;;;;;;;10.10;7.93;;;;;;;13.75;nan;97770.31;5052966;28;20255;-70
2022/09/24 08:34:54;;;;;;;9.83;7.53;;;;;;;13.73;nan;97772.41;5052731;28;20576;-70
2022/09/24 08:37:21;;;;;;;10.30;8.50;;;;;;;13.66;nan;97774.44;5052563;28;20209;-70
2022/09/24 08:39:47;;;;;;;10.00;8.37;;;;;;;13.70;nan;97775.59;5052557;28;20229;-70
2022/09/24 08:42:34;;;;;;;11.20;9.03;;;;;;;13.78;nan;97775.97;5052821;28;20225;-70
2022/09/24 08:47:53;;;;;;;9.43;8.10;;;;;;;14.14;nan;97771.88;5052557;28;20177;-70
2022/09/24 08:50:32;;;;;;;9.90;7.00;;;;;;;14.26;nan;97772.63;5052456;28;20739;-70
2022/09/24 08:53:12;;;;;;;11.70;7.37;;;;;;;14.49;nan;97775.84;5052742;28;20185;-70
2022/09/24 08:55:52;;;;;;;9.53;7.07;;;;;;;14.74;nan;97773.44;5052325;28;20193;-70
2022/09/24 08:58:31;;;;;;;7.80;6.87;;;;;;;14.71;nan;97776.63;5052531;28;20201;-70
2022/09/24 09:01:25;;;;;;;10.77;7.37;;;;;;;14.68;nan;97768.28;5051476;28;20239;-70
2022/09/24 09:03:56;;;;;;;7.13;6.43;;;;;;;14.66;nan;97773.09;5051254;28;20186;-70
2022/09/24 09:06:40;;;;;;;8.40;6.50;;;;;;;14.88;nan;97771.97;5056067;28;20189;-70
2022/09/24 09:09:19;;;;;;;7.90;5.83;;;;;;;14.92;nan;97773.09;5056380;28;20196;-70
2022/09/24 09:11:52;;;;;;;7.40;6.10;;;;;;;15.03;nan;97777.50;5054559;28;20209;-70
2022/09/24 09:14:45;;;;;;;7.67;6.60;;;;;;;15.32;nan;97776.13;5055657;28;20213;-70
2022/09/24 09:17:34;;;;;;;7.03;6.33;;;;;;;15.23;nan;97766.97;5055754;28;20194;-70
2022/09/24 09:20:05;;;;;;;7.67;5.97;;;;;;;15.21;nan;97765.59;5056033;28;20225;-70
2022/09/24 09:22:39;;;;;;;5.93;5.43;;;;;;;15.34;nan;97771.34;5055643;28;20206;-70
2022/09/24 09:25:24;;;;;;;6.57;5.40;;;;;;;15.41;nan;97774.63;5056393;28;20185;-70
2022/09/24 09:28:16;;;;;;;6.53;5.90;;;;;;;15.59;nan;97782.28;5056283;28;20219;-70
2022/09/24 09:31:08;;;;;;;6.80;6.10;;;;;;;15.72;nan;97776.47;5052601;28;20267;-70
2022/09/24 09:34:16;;;;;;;7.23;6.53;;;;;;;15.68;nan;97778.06;5055663;28;20542;-70
2022/09/24 09:37:07;;;;;;;6.30;5.07;;;;;;;15.64;nan;97779.63;5054086;28;20194;-70
2022/09/24 09:39:40;;;;;;;7.10;5.10;;;;;;;15.57;nan;97775.56;5055343;28;20316;-70
2022/09/24 09:42:25;;;;;;;5.00;4.60;;;;;;;15.56;nan;97777.41;5055402;28;20568;-70
2022/09/24 09:44:51;;;;;;;3.60;3.40;;;;;;;15.67;nan;97767.59;5055525;28;20283;-70
2022/09/24 09:47:24;;;;;;;4.30;3.50;;;;;;;15.90;nan;97770.69;5055348;28;20205;-70
2022/09/24 09:49:55;;;;;;;4.47;4.07;;;;;;;15.71;nan;97764.16;5054944;28;20225;-70
2022/09/24 09:52:26;;;;;;;4.83;4.27;;;;;;;15.62;nan;97757.66;5055127;28;20185;-70
2022/09/24 09:54:53;;;;;;;2.73;2.53;;;;;;;15.55;nan;97765.09;5055138;28;20201;-70
2022/09/24 09:57:25;;;;;;;3.10;2.47;;;;;;;15.51;nan;97772.03;5055103;28;20259;-70
2022/09/24 09:59:55;;;;;;;2.87;2.27;;;;;;;15.38;nan;97763.63;5055070;28;20295;-70
2022/09/24 10:02:32;;;;;;;3.20;2.20;;;;;;;15.21;nan;97758.38;5055133;28;20229;-70
2022/09/24 10:05:01;;;;;;;4.10;2.20;;;;;;;15.03;nan;97758.75;5054811;28;20204;-70
2022/09/24 10:07:27;;;;;;;2.20;1.97;;;;;;;15.00;nan;97755.75;5055089;28;20209;-70
2022/09/24 10:10:23;;;;;;;2.63;2.20;;;;;;;14.97;nan;97751.72;5055007;28;20221;-70
2022/09/24 10:12:54;;;;;;;3.83;2.33;;;;;;;14.90;nan;97764.53;5054845;28;20205;-70
2022/09/24 10:15:24;;;;;;;2.07;1.97;;;;;;;14.81;nan;97762.53;5054667;28;20205;-70
2022/09/24 10:17:53;;;;;;;2.50;2.30;;;;;;;14.80;nan;97775.13;5054224;28;20201;-70
2022/09/24 10:20:32;;;;;;;3.10;2.30;;;;;;;14.75;nan;97774.25;5054746;28;20229;-70
2022/09/24 10:23:15;;;;;;;2.93;2.23;;;;;;;14.75;nan;97761.66;5054645;28;20320;-70
2022/09/24 10:25:51;;;;;;;2.73;2.53;;;;;;;14.76;nan;97760.63;5054474;28;20637;-70
2022/09/24 10:31:11;;;;;;;4.00;2.70;;;;;;;14.87;nan;97761.53;5054438;28;20260;-70
2022/09/24 10:33:39;;;;;;;4.03;3.03;;;;;;;14.81;nan;97760.69;5054226;28;20186;-70
2022/09/24 10:36:12;;;;;;;3.37;3.00;;;;;;;14.76;nan;97763.31;5054459;28;20233;-70
2022/09/24 10:38:39;;;;;;;4.63;3.00;;;;;;;14.76;nan;97757.13;5054607;28;20194;-70
2022/09/24 10:41:14;;;;;;;3.30;2.77;;;;;;;14.76;nan;97763.31;5054430;28;20235;-70
2022/09/24 10:43:50;;;;;;;2.97;2.73;;;;;;;14.78;nan;97760.34;5053878;28;20227;-70
2022/09/24 10:46:53;;;;;;;4.37;3.10;;;;;;;14.80;nan;97764.44;5053166;28;20193;-70
2022/09/24 10:49:33;;;;;;;4.30;2.87;;;;;;;14.88;nan;97765.84;5053119;28;20194;-70
2022/09/24 10:52:12;;;;;;;4.53;3.23;;;;;;;14.95;nan;97756.53;5054238;28;20286;-70
2022/09/24 10:55:14;;;;;;;3.90;2.97;;;;;;;14.94;nan;97754.94;5053006;28;20193;-70
2022/09/24 10:57:55;;;;;;;3.37;3.07;;;;;;;14.98;nan;97760.56;5045206;28;20209;-70
2022/09/24 11:00:24;;;;;;;5.23;3.03;;;;;;;15.05;nan;97750.44;5053529;28;20276;-71
2022/09/24 11:02:53;;;;;;;3.63;3.10;;;;;;;15.13;nan;97753.50;5053492;28;20700;-70
2022/09/24 11:05:23;;;;;;;3.93;3.53;;;;;;;15.15;nan;97758.59;5053570;28;20733;-70
2022/09/24 11:08:01;;;;;;;4.00;3.07;;;;;;;15.29;nan;97760.56;5053771;28;20211;-70
2022/09/24 11:10:47;;;;;;;4.67;3.23;;;;;;;15.41;nan;97755.88;5052229;28;20221;-70
2022/09/24 11:13:35;;;;;;;4.07;3.30;;;;;;;15.33;nan;97752.84;5053651;28;20182;-70
2022/09/24 11:16:13;;;;;;;3.23;2.93;;;;;;;15.44;nan;97747.34;5053330;28;20200;-70
2022/09/24 11:18:52;;;;;;;3.57;3.00;;;;;;;15.56;nan;97756.00;5053656;28;20229;-70
2022/09/24 11:21:24;;;;;;;3.23;2.93;;;;;;;15.55;nan;97751.69;5053274;28;20221;-70
2022/09/24 11:24:06;;;;;;;3.00;2.80;;;;;;;15.65;nan;97757.13;5053454;28;20651;-70
2022/09/24 11:26:54;;;;;;;2.87;2.67;;;;;;;15.78;nan;97742.47;5053590;28;20193;-70
2022/09/24 11:29:33;;;;;;;2.80;2.60;;;;;;;15.73;nan;97748.59;5052078;28;20292;-70
2022/09/24 11:32:29;;;;;;;3.57;3.00;;;;;;;15.80;nan;97745.69;5053460;28;20190;-70
2022/09/24 11:35:20;;;;;;;4.00;3.10;;;;;;;15.84;nan;97747.59;5053442;28;20194;-70
2022/09/24 11:38:28;;;;;;;3.30;3.00;;;;;;;15.53;nan;97751.16;5053253;28;20189;-70
2022/09/24 11:41:22;;;;;;;3.17;2.87;;;;;;;15.49;nan;97742.03;5051980;28;20720;-70
2022/09/24 11:44:10;;;;;;;2.47;2.33;;;;;;;15.51;nan;97739.88;5052961;28;20327;-70
2022/09/24 11:46:58;;;;;;;3.10;2.80;;;;;;;15.45;nan;97738.25;5053341;28;20280;-70
2022/09/24 11:49:37;;;;;;;4.33;2.83;;;;;;;15.48;nan;97745.78;5052940;28;20744;-70
2022/09/24 11:52:12;;;;;;;3.33;3.00;;;;;;;15.48;nan;97739.59;5052903;28;20690;-70
2022/09/24 11:54:59;;;;;;;2.83;2.63;;;;;;;15.52;nan;97738.81;5053854;28;20196;-70
2022/09/24 11:57:30;;;;;;;3.40;3.10;;;;;;;15.66;nan;97725.78;5053182;28;20196;-70
2022/09/24 12:00:07;;;;;;;4.20;2.77;;;;;;;15.56;nan;97721.16;5053198;28;20225;-70
2022/09/24 12:02:40;;;;;;;2.93;2.70;;;;;;;15.62;nan;97736.22;5052665;28;20208;-70
2022/09/24 12:05:18;;;;;;;3.03;2.83;;;;;;;15.56;nan;97728.41;5051733;28;20205;-70
2022/09/24 12:07:53;;;;;;;3.53;2.80;;;;;;;15.59;nan;97728.69;5053400;28;20197;-70
2022/09/24 12:10:29;;;;;;;3.30;2.47;;;;;;;15.58;nan;97727.09;5051832;28;20282;-70
2022/09/24 12:13:20;;;;;;;4.00;3.00;;;;;;;15.52;nan;97733.44;5052828;28;20702;-70
2022/09/24 12:15:55;;;;;;;3.10;2.53;;;;;;;15.42;nan;97720.00;5052489;28;20201;-70
2022/09/24 12:18:26;;;;;;;3.30;3.00;;;;;;;15.36;nan;97720.22;5052860;28;20216;-70
2022/09/24 12:21:01;;;;;;;3.23;2.83;;;;;;;15.35;nan;97713.25;5053044;28;20243;-70
2022/09/24 12:23:38;;;;;;;3.63;2.90;;;;;;;15.37;nan;97717.28;5051489;28;20216;-70